sensor_id;sensor_type;location;lat;lon;timestamp;pressure;altitude;pressure_sealevel;temperature;humidity
47763;BME280;33526;42.690;23.322;2023-07-16T00:01:49;95252.34;;;24.17;76.42
47763;BME280;33526;42.690;23.322;2023-07-16T00:04:15;95296.47;;;24.50;76.47
47763;BME280;33526;42.690;23.322;2023-07-16T00:06:40;95289.94;;;24.42;76.54
47763;BME280;33526;42.690;23.322;2023-07-16T00:09:05;95274.03;;;24.33;76.50
47763;BME280;33526;42.690;23.322;2023-07-16T00:11:31;95274.59;;;24.32;76.48
47763;BME280;33526;42.690;23.322;2023-07-16T00:13:56;95311.41;;;24.56;76.00
47763;BME280;33526;42.690;23.322;2023-07-16T00:16:23;95295.03;;;24.57;76.28
47763;BME280;33526;42.690;23.322;2023-07-16T00:18:48;95304.47;;;24.65;76.03
47763;BME280;33526;42.690;23.322;2023-07-16T00:21:14;95278.06;;;24.38;76.25
47763;BME280;33526;42.690;23.322;2023-07-16T00:23:39;95294.63;;;24.53;76.17
47763;BME280;33526;42.690;23.322;2023-07-16T00:26:05;95284.22;;;24.42;76.49
47763;BME280;33526;42.690;23.322;2023-07-16T00:28:31;95268.13;;;24.31;76.20
47763;BME280;33526;42.690;23.322;2023-07-16T00:30:57;95252.09;;;24.28;75.99
47763;BME280;33526;42.690;23.322;2023-07-16T00:33:22;95281.16;;;24.40;76.16
47763;BME280;33526;42.690;23.322;2023-07-16T00:35:48;95308.38;;;24.54;76.32
47763;BME280;33526;42.690;23.322;2023-07-16T00:38:20;95304.16;;;24.55;75.87
47763;BME280;33526;42.690;23.322;2023-07-16T00:40:46;95260.03;;;24.22;76.01
47763;BME280;33526;42.690;23.322;2023-07-16T00:43:12;95304.06;;;24.48;76.04
47763;BME280;33526;42.690;23.322;2023-07-16T00:45:38;95283.41;;;24.41;75.92
47763;BME280;33526;42.690;23.322;2023-07-16T00:48:06;95306.06;;;24.53;75.74
47763;BME280;33526;42.690;23.322;2023-07-16T00:50:33;95308.22;;;24.60;75.70
47763;BME280;33526;42.690;23.322;2023-07-16T00:53:02;95310.88;;;24.58;75.93
47763;BME280;33526;42.690;23.322;2023-07-16T00:55:29;95309.13;;;24.55;75.96
47763;BME280;33526;42.690;23.322;2023-07-16T00:57:57;95242.94;;;24.09;75.55
47763;BME280;33526;42.690;23.322;2023-07-16T01:00:25;95284.25;;;24.29;76.22
47763;BME280;33526;42.690;23.322;2023-07-16T01:02:51;95280.84;;;24.30;75.98
47763;BME280;33526;42.690;23.322;2023-07-16T01:05:16;95298.41;;;24.34;76.18
47763;BME280;33526;42.690;23.322;2023-07-16T01:07:52;95264.47;;;24.10;75.77
47763;BME280;33526;42.690;23.322;2023-07-16T01:10:19;95285.94;;;24.24;75.85
47763;BME280;33526;42.690;23.322;2023-07-16T01:12:46;95292.34;;;24.17;76.18
47763;BME280;33526;42.690;23.322;2023-07-16T01:15:12;95292.69;;;24.13;76.57
47763;BME280;33526;42.690;23.322;2023-07-16T01:17:37;95300.47;;;24.13;76.67
47763;BME280;33526;42.690;23.322;2023-07-16T01:20:03;95286.44;;;24.01;76.67
47763;BME280;33526;42.690;23.322;2023-07-16T01:30:32;95294.81;;;23.99;77.51
47763;BME280;33526;42.690;23.322;2023-07-16T01:32:58;95278.63;;;23.81;77.96
47763;BME280;33526;42.690;23.322;2023-07-16T01:35:25;95307.78;;;24.00;77.98
47763;BME280;33526;42.690;23.322;2023-07-16T01:37:51;95274.66;;;23.71;78.71
47763;BME280;33526;42.690;23.322;2023-07-16T01:40:18;95277.50;;;23.71;78.69
47763;BME280;33526;42.690;23.322;2023-07-16T01:42:44;95297.72;;;23.86;78.72
47763;BME280;33526;42.690;23.322;2023-07-16T01:45:09;95281.25;;;23.79;78.62
47763;BME280;33526;42.690;23.322;2023-07-16T01:50:03;95260.22;;;23.55;78.38
47763;BME280;33526;42.690;23.322;2023-07-16T01:52:29;95294.97;;;23.80;77.96
47763;BME280;33526;42.690;23.322;2023-07-16T01:54:54;95285.41;;;23.78;78.15
47763;BME280;33526;42.690;23.322;2023-07-16T01:57:19;95265.94;;;23.55;78.08
47763;BME280;33526;42.690;23.322;2023-07-16T01:59:45;95315.69;;;23.94;78.14
47763;BME280;33526;42.690;23.322;2023-07-16T02:02:11;95283.44;;;23.73;78.03
47763;BME280;33526;42.690;23.322;2023-07-16T02:04:36;95254.53;;;23.42;78.31
47763;BME280;33526;42.690;23.322;2023-07-16T02:07:02;95278.66;;;23.54;78.41
47763;BME280;33526;42.690;23.322;2023-07-16T02:09:28;95269.44;;;23.48;78.71
47763;BME280;33526;42.690;23.322;2023-07-16T02:11:54;95291.56;;;23.69;78.47
47763;BME280;33526;42.690;23.322;2023-07-16T02:14:19;95236.09;;;23.29;78.52
47763;BME280;33526;42.690;23.322;2023-07-16T02:16:45;95268.34;;;23.38;78.41
47763;BME280;33526;42.690;23.322;2023-07-16T02:19:11;95294.69;;;23.57;78.79
47763;BME280;33526;42.690;23.322;2023-07-16T02:21:37;95287.84;;;23.60;78.84
47763;BME280;33526;42.690;23.322;2023-07-16T02:24:03;95320.44;;;23.65;79.11
47763;BME280;33526;42.690;23.322;2023-07-16T02:26:28;95293.78;;;23.49;79.23
47763;BME280;33526;42.690;23.322;2023-07-16T02:28:54;95300.72;;;23.54;79.13
47763;BME280;33526;42.690;23.322;2023-07-16T02:31:19;95314.44;;;23.55;79.46
47763;BME280;33526;42.690;23.322;2023-07-16T02:33:45;95292.47;;;23.37;79.97
47763;BME280;33526;42.690;23.322;2023-07-16T02:36:10;95282.28;;;23.28;80.23
47763;BME280;33526;42.690;23.322;2023-07-16T02:38:36;95278.25;;;23.23;79.41
47763;BME280;33526;42.690;23.322;2023-07-16T02:41:01;95313.34;;;23.45;79.76
47763;BME280;33526;42.690;23.322;2023-07-16T02:43:26;95274.97;;;23.19;80.04
47763;BME280;33526;42.690;23.322;2023-07-16T02:45:52;95272.84;;;23.06;79.73
47763;BME280;33526;42.690;23.322;2023-07-16T02:48:17;95318.81;;;23.43;80.29
47763;BME280;33526;42.690;23.322;2023-07-16T02:50:43;95272.78;;;23.12;80.54
47763;BME280;33526;42.690;23.322;2023-07-16T02:53:08;95294.25;;;23.13;80.67
47763;BME280;33526;42.690;23.322;2023-07-16T02:55:37;95321.47;;;23.41;80.67
47763;BME280;33526;42.690;23.322;2023-07-16T02:58:02;95293.59;;;23.20;80.48
47763;BME280;33526;42.690;23.322;2023-07-16T03:00:30;95296.66;;;23.09;81.19
47763;BME280;33526;42.690;23.322;2023-07-16T03:02:55;95300.50;;;23.12;81.30
47763;BME280;33526;42.690;23.322;2023-07-16T03:05:21;95326.38;;;23.40;81.41
47763;BME280;33526;42.690;23.322;2023-07-16T03:07:46;95325.63;;;23.40;80.87
47763;BME280;33526;42.690;23.322;2023-07-16T03:10:12;95309.38;;;23.35;80.71
47763;BME280;33526;42.690;23.322;2023-07-16T03:12:38;95323.00;;;23.28;81.31
47763;BME280;33526;42.690;23.322;2023-07-16T03:15:04;95307.41;;;23.16;81.43
47763;BME280;33526;42.690;23.322;2023-07-16T03:17:29;95318.50;;;23.20;81.11
47763;BME280;33526;42.690;23.322;2023-07-16T03:19:55;95320.00;;;23.21;81.77
47763;BME280;33526;42.690;23.322;2023-07-16T03:22:20;95277.53;;;22.77;82.38
47763;BME280;33526;42.690;23.322;2023-07-16T03:24:47;95328.69;;;23.15;82.38
47763;BME280;33526;42.690;23.322;2023-07-16T03:27:12;95299.53;;;23.09;81.97
47763;BME280;33526;42.690;23.322;2023-07-16T03:29:37;95313.34;;;23.05;81.78
47763;BME280;33526;42.690;23.322;2023-07-16T03:32:03;95329.94;;;22.87;83.53
47763;BME280;33526;42.690;23.322;2023-07-16T03:34:29;95344.94;;;23.07;83.47
47763;BME280;33526;42.690;23.322;2023-07-16T03:36:54;95347.06;;;23.01;83.51
47763;BME280;33526;42.690;23.322;2023-07-16T03:39:19;95330.66;;;23.07;83.20
47763;BME280;33526;42.690;23.322;2023-07-16T03:41:45;95350.41;;;23.05;83.02
47763;BME280;33526;42.690;23.322;2023-07-16T03:44:11;95349.56;;;22.91;83.99
47763;BME280;33526;42.690;23.322;2023-07-16T03:46:37;95339.38;;;22.96;83.64
47763;BME280;33526;42.690;23.322;2023-07-16T03:49:03;95349.75;;;23.12;82.76
47763;BME280;33526;42.690;23.322;2023-07-16T03:51:31;95340.19;;;23.09;81.96
47763;BME280;33526;42.690;23.322;2023-07-16T03:54:00;95362.34;;;23.17;82.14
47763;BME280;33526;42.690;23.322;2023-07-16T03:56:25;95358.19;;;23.18;81.93
47763;BME280;33526;42.690;23.322;2023-07-16T03:58:51;95341.31;;;23.20;81.80
47763;BME280;33526;42.690;23.322;2023-07-16T04:01:16;95323.44;;;23.19;80.39
47763;BME280;33526;42.690;23.322;2023-07-16T04:03:42;95285.22;;;22.96;80.31
47763;BME280;33526;42.690;23.322;2023-07-16T04:06:08;95358.88;;;23.51;80.22
47763;BME280;33526;42.690;23.322;2023-07-16T04:08:35;95358.63;;;23.89;78.03
47763;BME280;33526;42.690;23.322;2023-07-16T04:11:02;95359.38;;;24.37;75.21
47763;BME280;33526;42.690;23.322;2023-07-16T04:13:28;95343.78;;;24.72;72.11
47763;BME280;33526;42.690;23.322;2023-07-16T04:15:53;95368.06;;;25.29;69.87
47763;BME280;33526;42.690;23.322;2023-07-16T04:18:24;95355.59;;;25.47;68.31
47763;BME280;33526;42.690;23.322;2023-07-16T04:20:51;95358.59;;;26.07;66.18
47763;BME280;33526;42.690;23.322;2023-07-16T04:23:16;95344.47;;;26.09;64.82
47763;BME280;33526;42.690;23.322;2023-07-16T04:25:42;95360.00;;;26.21;64.96
47763;BME280;33526;42.690;23.322;2023-07-16T04:28:07;95369.63;;;26.47;63.79
47763;BME280;33526;42.690;23.322;2023-07-16T04:30:32;95340.88;;;26.83;61.94
47763;BME280;33526;42.690;23.322;2023-07-16T04:32:58;95324.81;;;26.73;61.34
47763;BME280;33526;42.690;23.322;2023-07-16T04:35:25;95348.91;;;26.93;60.88
47763;BME280;33526;42.690;23.322;2023-07-16T04:37:50;95314.84;;;26.66;60.75
47763;BME280;33526;42.690;23.322;2023-07-16T04:40:15;95371.28;;;27.48;59.32
47763;BME280;33526;42.690;23.322;2023-07-16T04:42:41;95310.28;;;26.70;60.48
47763;BME280;33526;42.690;23.322;2023-07-16T04:45:07;95332.06;;;26.89;60.00
47763;BME280;33526;42.690;23.322;2023-07-16T04:47:32;95369.38;;;27.12;60.43
47763;BME280;33526;42.690;23.322;2023-07-16T04:49:58;95361.53;;;27.36;59.24
47763;BME280;33526;42.690;23.322;2023-07-16T04:52:24;95347.56;;;27.17;59.06
47763;BME280;33526;42.690;23.322;2023-07-16T04:54:49;95349.47;;;27.14;59.45
47763;BME280;33526;42.690;23.322;2023-07-16T04:57:15;95355.97;;;27.61;57.75
47763;BME280;33526;42.690;23.322;2023-07-16T04:59:40;95352.06;;;27.81;56.99
47763;BME280;33526;42.690;23.322;2023-07-16T05:02:06;95381.75;;;27.92;56.60
47763;BME280;33526;42.690;23.322;2023-07-16T05:04:34;95368.44;;;28.19;56.04
47763;BME280;33526;42.690;23.322;2023-07-16T05:07:01;95362.53;;;28.50;54.84
47763;BME280;33526;42.690;23.322;2023-07-16T05:09:27;95366.53;;;28.88;53.77
47763;BME280;33526;42.690;23.322;2023-07-16T05:11:53;95341.13;;;29.02;52.58
47763;BME280;33526;42.690;23.322;2023-07-16T05:14:18;95364.66;;;29.08;52.68
47763;BME280;33526;42.690;23.322;2023-07-16T05:16:43;95381.25;;;29.50;51.95
47763;BME280;33526;42.690;23.322;2023-07-16T05:19:10;95372.38;;;29.05;52.27
47763;BME280;33526;42.690;23.322;2023-07-16T05:21:36;95374.03;;;28.50;53.91
47763;BME280;33526;42.690;23.322;2023-07-16T05:24:01;95309.31;;;28.01;54.55
47763;BME280;33526;42.690;23.322;2023-07-16T05:26:26;95362.06;;;28.29;55.11
47763;BME280;33526;42.690;23.322;2023-07-16T05:28:52;95381.59;;;28.38;55.01
47763;BME280;33526;42.690;23.322;2023-07-16T05:31:17;95366.59;;;28.47;54.54
47763;BME280;33526;42.690;23.322;2023-07-16T05:33:43;95341.94;;;28.69;53.74
47763;BME280;33526;42.690;23.322;2023-07-16T05:36:08;95374.81;;;29.59;51.52
47763;BME280;33526;42.690;23.322;2023-07-16T05:38:33;95386.88;;;30.18;50.23
47763;BME280;33526;42.690;23.322;2023-07-16T05:41:03;95379.00;;;30.18;49.50
47763;BME280;33526;42.690;23.322;2023-07-16T05:43:29;95392.16;;;29.94;49.43
47763;BME280;33526;42.690;23.322;2023-07-16T05:45:54;95335.34;;;29.52;50.10
47763;BME280;33526;42.690;23.322;2023-07-16T05:48:20;95352.19;;;29.55;49.73
47763;BME280;33526;42.690;23.322;2023-07-16T05:50:46;95361.63;;;29.06;51.50
47763;BME280;33526;42.690;23.322;2023-07-16T05:53:11;95328.16;;;29.18;50.64
47763;BME280;33526;42.690;23.322;2023-07-16T05:55:42;95382.75;;;29.51;50.39
47763;BME280;33526;42.690;23.322;2023-07-16T05:58:08;95371.31;;;29.86;49.03
47763;BME280;33526;42.690;23.322;2023-07-16T06:00:34;95371.97;;;30.29;47.52
47763;BME280;33526;42.690;23.322;2023-07-16T06:03:00;95374.66;;;30.27;47.74
47763;BME280;33526;42.690;23.322;2023-07-16T06:05:26;95341.81;;;29.95;48.21
47763;BME280;33526;42.690;23.322;2023-07-16T06:07:52;95400.81;;;30.29;48.02
47763;BME280;33526;42.690;23.322;2023-07-16T06:10:17;95390.81;;;30.75;46.83
47763;BME280;33526;42.690;23.322;2023-07-16T06:12:43;95320.84;;;30.57;46.90
47763;BME280;33526;42.690;23.322;2023-07-16T06:15:09;95394.38;;;30.38;48.66
47763;BME280;33526;42.690;23.322;2023-07-16T06:17:34;95347.91;;;30.17;47.78
47763;BME280;33526;42.690;23.322;2023-07-16T06:19:59;95370.72;;;30.67;47.55
47763;BME280;33526;42.690;23.322;2023-07-16T06:22:25;95362.06;;;30.40;47.57
47763;BME280;33526;42.690;23.322;2023-07-16T06:24:50;95365.59;;;29.78;50.03
47763;BME280;33526;42.690;23.322;2023-07-16T06:27:16;95395.19;;;30.14;48.85
47763;BME280;33526;42.690;23.322;2023-07-16T06:29:41;95393.66;;;29.78;49.82
47763;BME280;33526;42.690;23.322;2023-07-16T06:32:07;95390.44;;;30.08;49.40
47763;BME280;33526;42.690;23.322;2023-07-16T06:34:33;95356.56;;;29.99;49.36
47763;BME280;33526;42.690;23.322;2023-07-16T06:36:58;95368.94;;;29.92;49.20
47763;BME280;33526;42.690;23.322;2023-07-16T06:39:25;95382.69;;;29.59;50.05
47763;BME280;33526;42.690;23.322;2023-07-16T06:41:50;95337.25;;;29.07;51.42
47763;BME280;33526;42.690;23.322;2023-07-16T06:44:16;95365.00;;;28.62;52.82
47763;BME280;33526;42.690;23.322;2023-07-16T06:46:43;95322.84;;;28.16;53.79
47763;BME280;33526;42.690;23.322;2023-07-16T06:49:08;95386.34;;;27.95;55.77
47763;BME280;33526;42.690;23.322;2023-07-16T06:51:33;95285.41;;;27.04;57.51
47763;BME280;33526;42.690;23.322;2023-07-16T06:53:59;95323.78;;;27.70;56.43
47763;BME280;33526;42.690;23.322;2023-07-16T06:56:25;95363.72;;;27.99;55.78
47763;BME280;33526;42.690;23.322;2023-07-16T06:58:50;95381.53;;;27.82;56.35
47763;BME280;33526;42.690;23.322;2023-07-16T07:01:16;95359.97;;;27.58;57.14
47763;BME280;33526;42.690;23.322;2023-07-16T07:03:41;95358.09;;;27.37;57.80
47763;BME280;33526;42.690;23.322;2023-07-16T07:06:06;95340.88;;;27.30;57.68
47763;BME280;33526;42.690;23.322;2023-07-16T07:08:32;95364.91;;;27.73;57.04
47763;BME280;33526;42.690;23.322;2023-07-16T07:10:58;95364.88;;;27.96;56.50
47763;BME280;33526;42.690;23.322;2023-07-16T07:13:24;95336.19;;;27.80;55.25
47763;BME280;33526;42.690;23.322;2023-07-16T07:15:49;95326.44;;;27.76;56.04
47763;BME280;33526;42.690;23.322;2023-07-16T07:18:15;95380.09;;;28.29;55.89
47763;BME280;33526;42.690;23.322;2023-07-16T07:20:41;95334.16;;;28.14;55.54
47763;BME280;33526;42.690;23.322;2023-07-16T07:23:06;95365.84;;;28.39;55.12
47763;BME280;33526;42.690;23.322;2023-07-16T07:25:32;95367.69;;;28.59;54.46
47763;BME280;33526;42.690;23.322;2023-07-16T07:27:58;95339.06;;;28.29;54.19
47763;BME280;33526;42.690;23.322;2023-07-16T07:30:23;95365.31;;;28.33;55.22
47763;BME280;33526;42.690;23.322;2023-07-16T07:32:49;95321.47;;;28.25;55.00
47763;BME280;33526;42.690;23.322;2023-07-16T07:35:14;95368.13;;;28.81;53.91
47763;BME280;33526;42.690;23.322;2023-07-16T07:37:40;95350.41;;;28.92;53.14
47763;BME280;33526;42.690;23.322;2023-07-16T07:40:06;95376.97;;;29.08;53.07
47763;BME280;33526;42.690;23.322;2023-07-16T07:42:33;95359.91;;;28.77;53.35
47763;BME280;33526;42.690;23.322;2023-07-16T07:44:58;95375.31;;;28.65;53.41
47763;BME280;33526;42.690;23.322;2023-07-16T07:47:23;95311.88;;;28.30;53.36
47763;BME280;33526;42.690;23.322;2023-07-16T07:49:51;95357.56;;;28.43;53.45
47763;BME280;33526;42.690;23.322;2023-07-16T07:52:17;95361.06;;;28.41;53.71
47763;BME280;33526;42.690;23.322;2023-07-16T07:54:43;95352.69;;;28.28;53.71
47763;BME280;33526;42.690;23.322;2023-07-16T07:57:08;95313.06;;;27.63;55.48
47763;BME280;33526;42.690;23.322;2023-07-16T07:59:33;95328.66;;;28.00;54.81
47763;BME280;33526;42.690;23.322;2023-07-16T08:01:59;95364.28;;;28.53;54.77
47763;BME280;33526;42.690;23.322;2023-07-16T08:04:26;95313.25;;;28.21;53.99
47763;BME280;33526;42.690;23.322;2023-07-16T08:06:53;95347.38;;;28.57;54.00
47763;BME280;33526;42.690;23.322;2023-07-16T08:09:18;95339.16;;;28.79;52.88
47763;BME280;33526;42.690;23.322;2023-07-16T08:11:44;95312.84;;;28.57;52.73
47763;BME280;33526;42.690;23.322;2023-07-16T08:14:11;95263.25;;;28.49;52.45
47763;BME280;33526;42.690;23.322;2023-07-16T08:16:42;95362.69;;;29.18;52.40
47763;BME280;33526;42.690;23.322;2023-07-16T08:19:07;95362.59;;;29.33;52.26
47763;BME280;33526;42.690;23.322;2023-07-16T08:21:33;95360.22;;;29.40;51.60
47763;BME280;33526;42.690;23.322;2023-07-16T08:23:59;95353.66;;;29.22;51.48
47763;BME280;33526;42.690;23.322;2023-07-16T08:26:24;95365.88;;;29.47;51.58
47763;BME280;33526;42.690;23.322;2023-07-16T08:28:49;95367.56;;;29.33;51.87
47763;BME280;33526;42.690;23.322;2023-07-16T08:31:15;95300.56;;;29.15;51.15
47763;BME280;33526;42.690;23.322;2023-07-16T08:33:40;95350.75;;;29.47;50.92
47763;BME280;33526;42.690;23.322;2023-07-16T08:36:06;95369.19;;;29.44;52.04
47763;BME280;33526;42.690;23.322;2023-07-16T08:38:31;95306.44;;;29.00;51.54
47763;BME280;33526;42.690;23.322;2023-07-16T08:40:57;95343.69;;;29.40;51.22
47763;BME280;33526;42.690;23.322;2023-07-16T08:43:22;95358.47;;;29.19;51.70
47763;BME280;33526;42.690;23.322;2023-07-16T08:45:49;95356.94;;;29.18;52.23
47763;BME280;33526;42.690;23.322;2023-07-16T08:48:16;95332.00;;;29.13;52.32
47763;BME280;33526;42.690;23.322;2023-07-16T08:50:46;95359.03;;;29.43;51.72
47763;BME280;33526;42.690;23.322;2023-07-16T08:53:17;95354.78;;;29.44;51.57
47763;BME280;33526;42.690;23.322;2023-07-16T08:55:44;95346.09;;;29.69;51.64
47763;BME280;33526;42.690;23.322;2023-07-16T08:58:13;95336.69;;;29.51;51.00
47763;BME280;33526;42.690;23.322;2023-07-16T09:00:41;95340.81;;;29.40;50.90
47763;BME280;33526;42.690;23.322;2023-07-16T09:03:06;95356.16;;;29.60;51.02
47763;BME280;33526;42.690;23.322;2023-07-16T09:05:32;95357.28;;;29.65;50.53
47763;BME280;33526;42.690;23.322;2023-07-16T09:07:59;95313.91;;;29.63;50.38
47763;BME280;33526;42.690;23.322;2023-07-16T09:10:25;95291.81;;;29.48;50.54
47763;BME280;33526;42.690;23.322;2023-07-16T09:12:50;95351.63;;;30.09;50.28
47763;BME280;33526;42.690;23.322;2023-07-16T09:15:19;95347.19;;;30.43;49.46
47763;BME280;33526;42.690;23.322;2023-07-16T09:17:48;95320.75;;;30.37;48.73
47763;BME280;33526;42.690;23.322;2023-07-16T09:20:17;95327.19;;;30.28;48.92
47763;BME280;33526;42.690;23.322;2023-07-16T09:22:44;95305.81;;;30.31;49.57
47763;BME280;33526;42.690;23.322;2023-07-16T09:25:09;95332.28;;;30.37;48.60
47763;BME280;33526;42.690;23.322;2023-07-16T09:27:35;95307.00;;;30.28;48.88
47763;BME280;33526;42.690;23.322;2023-07-16T09:30:03;95324.78;;;30.52;48.87
47763;BME280;33526;42.690;23.322;2023-07-16T09:32:38;95338.75;;;30.82;48.44
47763;BME280;33526;42.690;23.322;2023-07-16T09:35:10;95259.81;;;30.51;47.95
47763;BME280;33526;42.690;23.322;2023-07-16T09:37:37;95309.78;;;30.90;47.77
47763;BME280;33526;42.690;23.322;2023-07-16T09:40:05;95322.66;;;31.16;47.81
47763;BME280;33526;42.690;23.322;2023-07-16T09:42:38;95323.81;;;30.94;47.82
47763;BME280;33526;42.690;23.322;2023-07-16T09:45:05;95305.94;;;30.78;47.84
47763;BME280;33526;42.690;23.322;2023-07-16T09:47:32;95300.59;;;31.11;47.89
47763;BME280;33526;42.690;23.322;2023-07-16T09:49:57;95305.16;;;31.51;47.74
47763;BME280;33526;42.690;23.322;2023-07-16T09:52:24;95302.66;;;31.38;46.88
47763;BME280;33526;42.690;23.322;2023-07-16T09:54:55;95290.44;;;31.10;47.29
47763;BME280;33526;42.690;23.322;2023-07-16T09:57:22;95288.31;;;31.20;46.65
47763;BME280;33526;42.690;23.322;2023-07-16T09:59:49;95301.72;;;31.25;47.49
47763;BME280;33526;42.690;23.322;2023-07-16T10:02:17;95298.72;;;31.43;47.10
47763;BME280;33526;42.690;23.322;2023-07-16T10:04:43;95303.63;;;31.70;46.67
47763;BME280;33526;42.690;23.322;2023-07-16T10:07:23;95291.75;;;31.66;46.02
47763;BME280;33526;42.690;23.322;2023-07-16T10:09:54;95293.13;;;31.65;46.20
47763;BME280;33526;42.690;23.322;2023-07-16T10:12:22;95302.41;;;31.92;45.26
47763;BME280;33526;42.690;23.322;2023-07-16T10:14:48;95298.47;;;31.97;44.82
47763;BME280;33526;42.690;23.322;2023-07-16T10:17:21;95305.16;;;31.90;44.61
47763;BME280;33526;42.690;23.322;2023-07-16T10:22:12;95282.19;;;31.92;45.14
47763;BME280;33526;42.690;23.322;2023-07-16T10:24:41;95273.81;;;32.16;43.76
47763;BME280;33526;42.690;23.322;2023-07-16T10:27:07;95242.78;;;31.87;43.95
47763;BME280;33526;42.690;23.322;2023-07-16T10:29:32;95273.53;;;31.53;45.02
47763;BME280;33526;42.690;23.322;2023-07-16T10:31:58;95267.75;;;31.53;46.12
47763;BME280;33526;42.690;23.322;2023-07-16T10:34:24;95279.28;;;31.73;46.07
47763;BME280;33526;42.690;23.322;2023-07-16T10:36:51;95238.53;;;31.49;46.16
47763;BME280;33526;42.690;23.322;2023-07-16T10:39:17;95236.97;;;31.29;47.01
47763;BME280;33526;42.690;23.322;2023-07-16T10:41:42;95283.25;;;31.68;46.50
47763;BME280;33526;42.690;23.322;2023-07-16T10:44:08;95253.75;;;31.50;46.28
47763;BME280;33526;42.690;23.322;2023-07-16T10:46:34;95271.69;;;31.48;46.41
47763;BME280;33526;42.690;23.322;2023-07-16T10:49:01;95229.88;;;31.49;46.44
47763;BME280;33526;42.690;23.322;2023-07-16T10:51:26;95287.66;;;31.88;46.11
47763;BME280;33526;42.690;23.322;2023-07-16T10:53:55;95273.38;;;32.00;45.79
47763;BME280;33526;42.690;23.322;2023-07-16T10:56:20;95258.00;;;32.17;45.51
47763;BME280;33526;42.690;23.322;2023-07-16T10:58:46;95223.91;;;32.15;44.95
47763;BME280;33526;42.690;23.322;2023-07-16T11:01:11;95269.91;;;32.72;45.11
47763;BME280;33526;42.690;23.322;2023-07-16T11:03:37;95254.69;;;32.52;44.79
47763;BME280;33526;42.690;23.322;2023-07-16T11:06:06;95246.31;;;32.56;44.27
47763;BME280;33526;42.690;23.322;2023-07-16T11:08:32;95204.81;;;32.32;44.56
47763;BME280;33526;42.690;23.322;2023-07-16T11:10:58;95273.31;;;32.90;44.06
47763;BME280;33526;42.690;23.322;2023-07-16T11:13:33;95258.66;;;32.98;42.41
47763;BME280;33526;42.690;23.322;2023-07-16T11:16:08;95258.53;;;32.95;42.20
47763;BME280;33526;42.690;23.322;2023-07-16T11:18:34;95255.97;;;33.11;41.68
47763;BME280;33526;42.690;23.322;2023-07-16T11:21:00;95193.19;;;32.51;41.73
47763;BME280;33526;42.690;23.322;2023-07-16T11:23:25;95245.56;;;32.65;41.92
47763;BME280;33526;42.690;23.322;2023-07-16T11:25:52;95200.91;;;32.27;41.48
47763;BME280;33526;42.690;23.322;2023-07-16T11:28:17;95233.53;;;32.59;41.57
47763;BME280;33526;42.690;23.322;2023-07-16T11:30:43;95206.44;;;32.45;42.59
47763;BME280;33526;42.690;23.322;2023-07-16T11:33:13;95256.59;;;32.79;42.33
47763;BME280;33526;42.690;23.322;2023-07-16T11:35:39;95228.09;;;32.44;42.02
47763;BME280;33526;42.690;23.322;2023-07-16T11:38:05;95246.78;;;32.62;41.59
47763;BME280;33526;42.690;23.322;2023-07-16T11:40:34;95244.63;;;32.63;41.59
47763;BME280;33526;42.690;23.322;2023-07-16T11:43:10;95235.78;;;32.10;42.73
47763;BME280;33526;42.690;23.322;2023-07-16T11:45:36;95239.44;;;32.20;43.68
47763;BME280;33526;42.690;23.322;2023-07-16T11:48:02;95233.31;;;32.16;42.85
47763;BME280;33526;42.690;23.322;2023-07-16T11:50:28;95203.25;;;31.80;42.38
47763;BME280;33526;42.690;23.322;2023-07-16T11:53:00;95243.97;;;32.23;42.52
47763;BME280;33526;42.690;23.322;2023-07-16T11:55:29;95229.44;;;32.43;42.13
47763;BME280;33526;42.690;23.322;2023-07-16T11:57:54;95227.06;;;32.29;40.07
47763;BME280;33526;42.690;23.322;2023-07-16T12:00:22;95231.41;;;32.50;40.60
47763;BME280;33526;42.690;23.322;2023-07-16T12:02:48;95176.09;;;32.24;39.08
47763;BME280;33526;42.690;23.322;2023-07-16T12:05:21;95194.66;;;32.72;39.33
47763;BME280;33526;42.690;23.322;2023-07-16T12:07:46;95219.69;;;32.89;38.57
47763;BME280;33526;42.690;23.322;2023-07-16T12:10:12;95156.13;;;32.38;38.10
47763;BME280;33526;42.690;23.322;2023-07-16T12:12:37;95183.75;;;32.51;38.37
47763;BME280;33526;42.690;23.322;2023-07-16T12:15:07;95188.78;;;32.60;38.46
47763;BME280;33526;42.690;23.322;2023-07-16T12:17:33;95198.72;;;32.79;38.03
47763;BME280;33526;42.690;23.322;2023-07-16T12:19:58;95216.69;;;32.77;38.03
47763;BME280;33526;42.690;23.322;2023-07-16T12:22:24;95209.34;;;32.86;38.02
47763;BME280;33526;42.690;23.322;2023-07-16T12:24:49;95178.72;;;32.61;38.77
47763;BME280;33526;42.690;23.322;2023-07-16T12:27:15;95167.88;;;32.93;38.31
47763;BME280;33526;42.690;23.322;2023-07-16T12:29:41;95164.00;;;33.00;38.88
47763;BME280;33526;42.690;23.322;2023-07-16T12:32:07;95174.75;;;33.09;38.28
47763;BME280;33526;42.690;23.322;2023-07-16T12:34:33;95161.50;;;33.16;38.24
47763;BME280;33526;42.690;23.322;2023-07-16T12:36:59;95198.50;;;33.61;37.63
47763;BME280;33526;42.690;23.322;2023-07-16T12:39:24;95185.38;;;33.60;37.03
47763;BME280;33526;42.690;23.322;2023-07-16T12:41:50;95210.56;;;33.79;36.74
47763;BME280;33526;42.690;23.322;2023-07-16T12:44:15;95178.50;;;33.43;37.01
47763;BME280;33526;42.690;23.322;2023-07-16T12:46:40;95158.31;;;33.33;37.05
47763;BME280;33526;42.690;23.322;2023-07-16T12:49:06;95166.22;;;33.33;36.80
47763;BME280;33526;42.690;23.322;2023-07-16T12:51:31;95183.47;;;33.52;36.73
47763;BME280;33526;42.690;23.322;2023-07-16T12:53:57;95193.25;;;33.69;36.40
47763;BME280;33526;42.690;23.322;2023-07-16T12:56:22;95175.00;;;33.66;35.93
47763;BME280;33526;42.690;23.322;2023-07-16T12:58:48;95205.44;;;33.89;36.31